createdAt,value
2018-07-20T00:01:29.209Z,67.40
2018-07-20T00:03:56.316Z,68.28
2018-07-20T00:06:23.444Z,68.02
2018-07-20T00:08:50.517Z,68.45
2018-07-20T00:11:17.672Z,71.21
2018-07-20T00:13:44.761Z,72.36
2018-07-20T00:16:11.932Z,72.13
2018-07-20T00:18:39.100Z,70.67
2018-07-20T00:21:06.236Z,69.69
2018-07-20T00:23:33.373Z,69.13
2018-07-20T00:26:00.571Z,68.80
2018-07-20T00:28:27.678Z,69.51
2018-07-20T00:30:54.795Z,69.87
2018-07-20T00:33:21.880Z,71.37
2018-07-20T00:35:49.028Z,72.73
2018-07-20T00:38:16.161Z,72.24
2018-07-20T00:40:43.344Z,72.56
2018-07-20T00:43:10.435Z,72.09
2018-07-20T00:45:37.644Z,72.03
2018-07-20T00:48:04.780Z,73.46
2018-07-20T00:50:31.927Z,74.11
2018-07-20T00:52:59.068Z,72.29
2018-07-20T00:55:26.187Z,71.77
2018-07-20T00:57:53.267Z,70.80
2018-07-20T01:00:20.376Z,71.74
2018-07-20T01:02:47.480Z,72.61
2018-07-20T01:05:14.655Z,74.11
2018-07-20T01:07:41.839Z,72.73
2018-07-20T01:10:08.988Z,72.14
2018-07-20T01:12:36.111Z,71.88
2018-07-20T01:15:03.930Z,73.43
2018-07-20T01:17:31.060Z,73.76
2018-07-20T01:19:58.186Z,73.10
2018-07-20T01:22:25.304Z,73.19
2018-07-20T01:24:52.542Z,75.11
2018-07-20T01:27:19.709Z,77.76
2018-07-20T01:29:46.873Z,78.17
2018-07-20T01:32:13.992Z,76.11
2018-07-20T01:34:41.124Z,73.85
2018-07-20T01:37:08.270Z,73.18
2018-07-20T01:39:35.425Z,72.24
2018-07-20T01:42:02.549Z,72.00
2018-07-20T01:44:29.681Z,72.09
2018-07-20T01:46:56.797Z,73.84
2018-07-20T01:49:23.999Z,76.62
2018-07-20T01:51:51.155Z,78.62
2018-07-20T01:54:18.245Z,78.14
2018-07-20T01:56:45.364Z,75.82
2018-07-20T01:59:12.468Z,74.08
2018-07-20T02:01:39.623Z,74.58
2018-07-20T02:04:06.800Z,73.36
2018-07-20T02:06:33.940Z,74.64
2018-07-20T02:09:01.077Z,74.49
2018-07-20T02:11:28.225Z,75.43
2018-07-20T02:13:55.319Z,76.89
2018-07-20T02:16:22.448Z,75.63
2018-07-20T02:18:49.608Z,76.05
2018-07-20T02:21:16.760Z,77.92
2018-07-20T02:23:43.872Z,78.07
2018-07-20T02:26:11.020Z,78.67
2018-07-20T02:28:38.161Z,80.39
2018-07-20T02:31:05.748Z,77.93
2018-07-20T02:33:32.866Z,77.48
2018-07-20T02:35:59.940Z,77.80
2018-07-20T02:38:27.085Z,76.13
2018-07-20T02:40:54.226Z,76.83
2018-07-20T02:43:21.393Z,78.42
2018-07-20T02:45:48.587Z,79.03
2018-07-20T02:48:15.729Z,77.08
2018-07-20T02:50:42.936Z,77.37
2018-07-20T02:53:10.104Z,77.84
2018-07-20T02:55:37.231Z,76.60
2018-07-20T02:58:04.448Z,75.14
2018-07-20T03:00:31.581Z,74.82
2018-07-20T03:02:58.685Z,79.19
2018-07-20T03:05:25.813Z,77.89
2018-07-20T03:07:52.923Z,78.08
2018-07-20T03:10:20.088Z,77.92
2018-07-20T03:12:47.209Z,77.44
2018-07-20T03:15:14.357Z,78.69
2018-07-20T03:17:41.483Z,79.91
2018-07-20T03:20:08.636Z,79.71
2018-07-20T03:22:35.856Z,78.72
2018-07-20T03:25:03.816Z,78.08
2018-07-20T03:27:30.892Z,76.53
2018-07-20T03:29:58.020Z,76.32
2018-07-20T03:32:25.125Z,75.90
2018-07-20T03:34:52.345Z,77.10
2018-07-20T03:37:19.449Z,76.37
2018-07-20T03:39:46.622Z,75.54
2018-07-20T03:42:13.772Z,76.33
2018-07-20T03:44:40.913Z,77.99
2018-07-20T03:47:08.083Z,79.45
2018-07-20T03:49:35.189Z,79.04
2018-07-20T03:52:02.304Z,79.48
2018-07-20T03:54:29.412Z,81.68
2018-07-20T03:56:56.556Z,81.08
2018-07-20T03:59:23.669Z,81.96
2018-07-20T04:01:50.896Z,80.28
2018-07-20T04:04:17.988Z,80.71
2018-07-20T04:06:45.118Z,78.82
2018-07-20T04:09:12.219Z,78.17
2018-07-20T04:11:39.840Z,76.72
2018-07-20T04:14:07.493Z,75.89
2018-07-20T04:16:34.601Z,76.01
2018-07-20T04:19:01.729Z,76.02
2018-07-20T04:21:28.844Z,75.10
2018-07-20T04:23:55.976Z,74.89
2018-07-20T04:26:23.139Z,75.55
2018-07-20T04:28:50.292Z,77.04
2018-07-20T04:31:17.690Z,76.95
2018-07-20T04:33:44.800Z,76.96
2018-07-20T04:36:11.953Z,76.96
2018-07-20T04:38:39.059Z,77.74
2018-07-20T04:41:06.287Z,76.81
2018-07-20T04:43:33.384Z,76.94
2018-07-20T04:46:00.548Z,78.53
2018-07-20T04:48:27.672Z,77.79
2018-07-20T04:50:54.803Z,76.58
2018-07-20T04:53:21.938Z,76.30
2018-07-20T04:55:49.048Z,75.60
2018-07-20T04:58:16.191Z,74.36
2018-07-20T05:00:43.353Z,74.14
2018-07-20T05:03:10.492Z,73.61
2018-07-20T05:05:37.723Z,72.67
2018-07-20T05:08:05.144Z,71.89
2018-07-20T05:10:32.267Z,71.97
2018-07-20T05:12:59.406Z,73.14
2018-07-20T05:15:26.572Z,71.95
2018-07-20T05:17:53.704Z,72.25
2018-07-20T05:20:20.880Z,70.82
2018-07-20T05:22:48.053Z,71.67
2018-07-20T05:25:15.196Z,71.43
2018-07-20T05:27:42.300Z,71.62
2018-07-20T05:30:09.473Z,72.38
2018-07-20T05:32:36.678Z,70.84
2018-07-20T05:35:04.872Z,69.71
2018-07-20T05:37:31.988Z,70.13
2018-07-20T05:39:59.111Z,68.96
2018-07-20T05:42:26.323Z,70.62
2018-07-20T05:44:53.490Z,70.40
2018-07-20T05:47:20.643Z,71.30
2018-07-20T05:49:47.741Z,70.61
2018-07-20T05:52:14.917Z,70.67
2018-07-20T05:54:42.056Z,69.53
2018-07-20T05:57:09.269Z,67.66
2018-07-20T05:59:36.399Z,68.62
2018-07-20T06:02:03.652Z,67.67
2018-07-20T06:04:30.896Z,67.71
2018-07-20T06:06:58.019Z,66.81
2018-07-20T06:09:25.164Z,67.32
2018-07-20T06:11:52.320Z,63.63
2018-07-20T06:14:19.911Z,64.28
2018-07-20T06:16:47.004Z,63.05
2018-07-20T06:19:14.208Z,62.14
2018-07-20T06:21:41.399Z,62.00
2018-07-20T06:24:08.643Z,61.58
2018-07-20T06:26:42.605Z,60.11
2018-07-20T06:29:09.737Z,60.34
2018-07-20T06:31:36.892Z,60.16
2018-07-20T06:34:04.037Z,59.31
2018-07-20T06:36:31.128Z,61.09
2018-07-20T06:38:58.274Z,60.01
2018-07-20T06:41:25.504Z,61.73
2018-07-20T06:43:52.643Z,61.36
2018-07-20T06:46:19.800Z,60.21
2018-07-20T06:48:46.944Z,58.97
2018-07-20T06:51:14.100Z,57.98
2018-07-20T06:53:41.221Z,57.69
2018-07-20T06:56:08.365Z,56.74
2018-07-20T06:58:35.494Z,56.40
2018-07-20T07:01:02.620Z,55.30
2018-07-20T07:03:29.756Z,55.71
2018-07-20T07:05:56.917Z,55.01
2018-07-20T07:08:24.121Z,54.54
2018-07-20T07:10:51.279Z,56.18
2018-07-20T07:13:18.399Z,54.77
2018-07-20T07:15:45.548Z,54.13
2018-07-20T07:18:12.732Z,53.53
2018-07-20T07:20:39.857Z,53.35
2018-07-20T07:23:06.976Z,53.32
2018-07-20T07:25:34.070Z,52.30
2018-07-20T07:28:01.192Z,52.28
2018-07-20T07:30:28.316Z,52.37
2018-07-20T07:32:55.492Z,50.98
2018-07-20T07:35:22.653Z,50.77
2018-07-20T07:37:49.779Z,50.47
2018-07-20T07:40:16.929Z,51.02
2018-07-20T07:42:44.192Z,50.91
2018-07-20T07:45:11.348Z,49.50
2018-07-20T07:47:38.492Z,49.10
2018-07-20T07:50:05.693Z,47.90
2018-07-20T07:52:32.796Z,49.54
2018-07-20T07:54:59.940Z,48.46
2018-07-20T07:57:27.109Z,47.63
2018-07-20T07:59:54.236Z,45.79
2018-07-20T08:02:21.344Z,46.93
2018-07-20T08:04:48.491Z,45.63
2018-07-20T08:07:15.658Z,46.00
2018-07-20T08:09:42.862Z,43.52
2018-07-20T08:12:09.972Z,42.77
2018-07-20T08:14:37.137Z,42.99
2018-07-20T08:17:04.323Z,44.05
2018-07-20T08:19:31.481Z,43.08
2018-07-20T08:21:58.603Z,41.35
2018-07-20T08:24:25.857Z,40.89
2018-07-20T08:26:53.036Z,42.57
2018-07-20T08:29:20.844Z,42.02
2018-07-20T08:31:47.971Z,41.39
2018-07-20T08:34:15.127Z,41.77
2018-07-20T08:36:42.228Z,40.41
2018-07-20T08:39:10.135Z,42.24
2018-07-20T08:41:37.608Z,41.36
2018-07-20T08:44:04.768Z,40.37
2018-07-20T08:46:31.977Z,40.15
2018-07-20T08:48:59.089Z,40.40
2018-07-20T08:51:26.191Z,40.54
2018-07-20T08:53:53.416Z,38.45
2018-07-20T08:56:20.480Z,38.57
2018-07-20T08:58:48.016Z,38.63
2018-07-20T09:01:14.812Z,38.73
2018-07-20T09:03:42.049Z,37.47
2018-07-20T09:06:09.259Z,38.60
2018-07-20T09:08:36.393Z,36.78
2018-07-20T09:11:03.572Z,36.82
2018-07-20T09:13:30.755Z,36.51
2018-07-20T09:15:57.880Z,37.64
2018-07-20T09:18:25.003Z,34.52
2018-07-20T09:20:52.217Z,35.10
2018-07-20T09:23:19.343Z,34.18
2018-07-20T09:25:46.448Z,33.67
2018-07-20T09:28:14.449Z,35.42
2018-07-20T09:30:41.560Z,35.65
2018-07-20T09:33:08.712Z,36.24
2018-07-20T09:35:35.909Z,35.94
2018-07-20T09:38:03.031Z,32.55
2018-07-20T09:40:30.159Z,33.20
2018-07-20T09:42:57.295Z,32.48
2018-07-20T09:45:24.401Z,31.17
2018-07-20T09:47:51.535Z,28.76
2018-07-20T09:50:18.927Z,28.14
2018-07-20T09:52:46.064Z,29.62
2018-07-20T09:55:13.228Z,28.41
2018-07-20T09:57:40.384Z,27.37
2018-07-20T10:00:07.501Z,27.04
2018-07-20T10:02:34.640Z,28.89
2018-07-20T10:05:01.858Z,29.65
2018-07-20T10:07:28.983Z,31.32
2018-07-20T10:09:56.819Z,29.01
2018-07-20T10:12:23.975Z,30.03
2018-07-20T10:14:51.127Z,30.14
2018-07-20T10:17:18.228Z,29.67
2018-07-20T10:19:45.388Z,30.36
2018-07-20T10:22:12.513Z,29.75
2018-07-20T10:24:39.692Z,29.64
2018-07-20T10:27:06.892Z,29.24
2018-07-20T10:29:34.051Z,30.98
2018-07-20T10:32:01.177Z,30.03
2018-07-20T10:34:28.341Z,30.16
2018-07-20T10:36:55.448Z,30.22
2018-07-20T10:39:22.628Z,29.17
2018-07-20T10:41:50.164Z,29.24
2018-07-20T10:44:17.308Z,29.18
2018-07-20T10:46:44.552Z,29.31
2018-07-20T10:49:11.692Z,29.33
2018-07-20T10:51:38.845Z,29.51
2018-07-20T10:54:05.965Z,29.20
2018-07-20T10:56:33.130Z,27.63
2018-07-20T10:59:00.315Z,28.69
2018-07-20T11:01:27.478Z,29.48
2018-07-20T11:03:54.728Z,32.08
2018-07-20T11:06:21.879Z,31.59
2018-07-20T11:08:49.071Z,32.11
2018-07-20T11:11:16.242Z,31.11
2018-07-20T11:13:43.431Z,29.47
2018-07-20T11:16:10.564Z,32.29
2018-07-20T11:18:37.693Z,32.07
2018-07-20T11:21:04.861Z,31.93
2018-07-20T11:23:32.010Z,31.31
2018-07-20T11:25:59.192Z,30.51
2018-07-20T11:28:26.340Z,31.72
2018-07-20T11:30:53.532Z,31.29
2018-07-20T11:33:20.679Z,31.43
2018-07-20T11:35:47.823Z,31.31
2018-07-20T11:38:14.956Z,31.16
2018-07-20T11:40:42.104Z,30.67
2018-07-20T11:43:09.233Z,29.70
2018-07-20T11:45:36.411Z,31.83
2018-07-20T11:48:03.612Z,30.61
2018-07-20T11:50:30.743Z,29.88
2018-07-20T11:52:57.840Z,30.99
2018-07-20T11:55:24.993Z,29.49
2018-07-20T11:57:52.219Z,29.08
2018-07-20T12:00:19.388Z,29.30
2018-07-20T12:02:46.560Z,29.63
2018-07-20T12:05:13.747Z,28.89
2018-07-20T12:07:40.911Z,28.90
2018-07-20T12:10:08.287Z,29.77
2018-07-20T12:12:35.439Z,33.50
2018-07-20T12:15:02.615Z,31.63
2018-07-20T12:17:29.816Z,31.84
2018-07-20T12:19:56.955Z,31.43
2018-07-20T12:22:24.100Z,30.63
2018-07-20T12:24:51.253Z,31.15
2018-07-20T12:27:18.417Z,29.34
2018-07-20T12:29:45.713Z,28.58
2018-07-20T12:32:12.946Z,29.81
2018-07-20T12:34:40.152Z,28.70
2018-07-20T12:37:07.262Z,28.84
2018-07-20T12:39:34.520Z,29.08
2018-07-20T12:42:01.813Z,29.89
2018-07-20T12:44:28.999Z,29.66
2018-07-20T12:46:56.132Z,30.32
2018-07-20T12:49:23.336Z,30.83
2018-07-20T12:51:50.490Z,28.76
2018-07-20T12:54:17.640Z,28.57
2018-07-20T12:56:44.828Z,27.97
2018-07-20T12:59:11.970Z,27.11
2018-07-20T13:01:39.197Z,27.63
2018-07-20T13:04:06.390Z,26.93
2018-07-20T13:06:33.755Z,27.32
2018-07-20T13:09:00.973Z,28.00
2018-07-20T13:11:28.157Z,29.92
2018-07-20T13:13:55.342Z,26.74
2018-07-20T13:16:22.571Z,28.36
2018-07-20T13:18:49.816Z,28.51
2018-07-20T13:21:16.980Z,28.96
2018-07-20T13:23:44.116Z,26.78
2018-07-20T13:26:11.336Z,27.86
2018-07-20T13:28:38.518Z,27.49
2018-07-20T13:31:05.774Z,27.96
2018-07-20T13:33:32.988Z,29.37
2018-07-20T13:36:00.244Z,28.10
2018-07-20T13:38:27.507Z,29.70
2018-07-20T13:40:54.689Z,25.40
2018-07-20T13:43:21.882Z,28.99
2018-07-20T13:45:49.034Z,28.17
2018-07-20T13:48:19.028Z,26.37
2018-07-20T13:50:46.260Z,26.63
2018-07-20T13:53:13.381Z,26.78
2018-07-20T13:55:40.602Z,29.48
2018-07-20T13:58:07.782Z,28.52
2018-07-20T14:00:35.018Z,29.09
2018-07-20T14:03:02.228Z,30.11
2018-07-20T14:05:29.444Z,30.18
2018-07-20T14:07:56.597Z,27.46
2018-07-20T14:10:23.862Z,25.87
2018-07-20T14:12:51.054Z,24.79
2018-07-20T14:15:18.335Z,25.00
2018-07-20T14:17:45.560Z,24.56
2018-07-20T14:20:12.789Z,24.85
2018-07-20T14:22:40.084Z,23.90
2018-07-20T14:25:07.380Z,24.34
2018-07-20T14:27:34.563Z,26.83
2018-07-20T14:30:01.918Z,26.13
2018-07-20T14:32:29.105Z,25.31
2018-07-20T14:34:56.446Z,24.32
2018-07-20T14:37:23.640Z,24.29
2018-07-20T14:39:50.864Z,25.61
2018-07-20T14:42:18.059Z,24.51
2018-07-20T14:44:45.276Z,26.50
2018-07-20T14:47:12.445Z,27.67
2018-07-20T14:49:39.618Z,28.17
2018-07-20T14:52:06.826Z,28.55
2018-07-20T14:54:34.054Z,27.18
2018-07-20T14:57:01.241Z,29.77
2018-07-20T14:59:28.929Z,27.56
2018-07-20T15:01:56.111Z,25.97
2018-07-20T15:04:23.246Z,26.66
2018-07-20T15:06:50.406Z,25.47
2018-07-20T15:09:17.608Z,27.15
2018-07-20T15:11:44.805Z,27.49
2018-07-20T15:14:12.056Z,26.07
2018-07-20T15:16:39.242Z,27.94
2018-07-20T15:19:06.454Z,25.73
2018-07-20T15:21:33.701Z,25.95
2018-07-20T15:24:00.860Z,25.33
2018-07-20T15:26:28.093Z,24.33
2018-07-20T15:28:55.208Z,25.98
2018-07-20T15:31:22.416Z,23.54
2018-07-20T15:33:49.712Z,24.60
2018-07-20T15:36:16.937Z,26.89
2018-07-20T15:38:44.095Z,26.88
2018-07-20T15:41:11.244Z,26.73
2018-07-20T15:43:39.542Z,27.91
2018-07-20T15:46:06.770Z,28.83
2018-07-20T15:48:34.264Z,28.56
2018-07-20T15:51:01.442Z,27.92
2018-07-20T15:53:36.274Z,28.30
2018-07-20T15:55:55.914Z,28.17
2018-07-20T15:58:23.098Z,27.76
2018-07-20T16:00:50.344Z,26.44
2018-07-20T16:03:17.582Z,25.62
2018-07-20T16:05:44.844Z,25.27
2018-07-20T16:08:11.989Z,27.57
2018-07-20T16:10:39.426Z,26.88
2018-07-20T16:13:06.691Z,27.78
2018-07-20T16:15:33.914Z,28.82
2018-07-20T16:18:01.081Z,28.92
2018-07-20T16:20:28.307Z,30.82
2018-07-20T16:22:55.522Z,29.11
2018-07-20T16:25:22.678Z,29.76
2018-07-20T16:27:49.886Z,29.85
2018-07-20T16:30:17.081Z,28.89
2018-07-20T16:32:44.241Z,28.92
2018-07-20T16:35:11.442Z,30.22
2018-07-20T16:37:38.590Z,28.66
2018-07-20T16:40:05.753Z,29.89
2018-07-20T16:42:32.938Z,30.92
2018-07-20T16:45:00.116Z,30.42
2018-07-20T16:47:27.301Z,29.68
2018-07-20T16:52:34.139Z,30.46
2018-07-20T16:55:01.360Z,30.02
2018-07-20T16:57:28.542Z,29.60
2018-07-20T16:59:55.727Z,31.21
2018-07-20T17:02:22.930Z,31.10
2018-07-20T17:04:50.095Z,31.82
2018-07-20T17:07:17.249Z,30.29
2018-07-20T17:09:44.422Z,31.23
2018-07-20T17:12:11.576Z,30.46
2018-07-20T17:14:38.735Z,30.56
2018-07-20T17:17:05.908Z,29.81
2018-07-20T17:19:33.086Z,31.81
2018-07-20T17:22:00.329Z,32.14
2018-07-20T17:24:27.501Z,34.00
2018-07-20T17:26:54.700Z,35.06
2018-07-20T17:29:21.931Z,32.94
2018-07-20T17:31:49.152Z,34.30
2018-07-20T17:34:16.356Z,32.77
2018-07-20T17:36:43.584Z,32.34
2018-07-20T17:39:11.694Z,34.56
2018-07-20T17:41:38.870Z,33.18
2018-07-20T17:44:06.155Z,34.95
2018-07-20T17:46:33.366Z,33.46
2018-07-20T17:49:00.588Z,37.28
2018-07-20T17:51:27.783Z,37.33
2018-07-20T17:53:54.974Z,39.60
2018-07-20T17:56:22.237Z,39.67
2018-07-20T17:58:49.335Z,40.05
2018-07-20T18:01:16.535Z,40.57
2018-07-20T18:03:43.792Z,37.66
2018-07-20T18:06:11.051Z,35.05
2018-07-20T18:08:38.226Z,36.36
2018-07-20T18:11:05.462Z,36.23
2018-07-20T18:13:32.637Z,39.36
2018-07-20T18:15:59.861Z,40.24
2018-07-20T18:18:27.039Z,40.92
2018-07-20T18:20:54.221Z,40.27
2018-07-20T18:23:21.380Z,40.41
2018-07-20T18:25:48.609Z,40.41
2018-07-20T18:28:15.790Z,43.20
2018-07-20T18:30:42.993Z,42.83
2018-07-20T18:33:10.226Z,43.25
2018-07-20T18:35:38.014Z,42.67
2018-07-20T18:38:05.197Z,42.55
2018-07-20T18:40:32.416Z,43.17
2018-07-20T18:42:59.617Z,43.27
2018-07-20T18:45:26.786Z,42.87
2018-07-20T18:47:53.981Z,44.40
2018-07-20T18:50:21.172Z,44.05
2018-07-20T18:52:48.329Z,43.18
2018-07-20T18:55:15.494Z,44.55
2018-07-20T18:57:42.708Z,45.68
2018-07-20T19:00:09.891Z,44.57
2018-07-20T19:02:37.019Z,44.99
2018-07-20T19:05:05.177Z,44.91
2018-07-20T19:07:32.359Z,45.46
2018-07-20T19:09:59.962Z,46.87
2018-07-20T19:12:27.176Z,47.61
2018-07-20T19:14:54.481Z,47.52
2018-07-20T19:17:21.656Z,47.28
2018-07-20T19:19:48.813Z,47.05
2018-07-20T19:22:15.978Z,47.39
2018-07-20T19:24:43.109Z,48.21
2018-07-20T19:27:10.309Z,48.79
2018-07-20T19:29:37.500Z,49.07
2018-07-20T19:32:04.699Z,47.97
2018-07-20T19:34:31.879Z,48.50
2018-07-20T19:36:59.090Z,49.79
2018-07-20T19:39:26.338Z,50.99
2018-07-20T19:41:53.633Z,49.80
2018-07-20T19:44:20.768Z,49.86
2018-07-20T19:46:47.860Z,49.52
2018-07-20T19:49:15.021Z,51.33
2018-07-20T19:51:42.175Z,51.37
2018-07-20T19:54:09.351Z,53.23
2018-07-20T19:56:36.545Z,53.04
2018-07-20T19:59:03.807Z,51.52
2018-07-20T20:01:31.004Z,51.68
2018-07-20T20:03:58.156Z,52.25
2018-07-20T20:06:25.337Z,52.42
2018-07-20T20:08:52.597Z,54.95
2018-07-20T20:11:19.771Z,54.37
2018-07-20T20:13:47.009Z,52.51
2018-07-20T20:16:14.361Z,54.00
2018-07-20T20:18:41.633Z,55.20
2018-07-20T20:21:08.873Z,55.66
2018-07-20T20:23:37.848Z,55.32
2018-07-20T20:26:05.149Z,55.60
2018-07-20T20:28:32.569Z,53.83
2018-07-20T20:30:59.808Z,53.66
2018-07-20T20:33:26.958Z,53.56
2018-07-20T20:35:54.147Z,52.52
2018-07-20T20:38:21.354Z,54.93
2018-07-20T20:40:48.531Z,55.85
2018-07-20T20:43:15.692Z,55.62
2018-07-20T20:45:42.892Z,55.42
2018-07-20T20:48:10.061Z,56.08
2018-07-20T20:50:37.247Z,55.66
2018-07-20T20:53:04.652Z,56.09
2018-07-20T20:55:31.880Z,55.37
2018-07-20T20:57:59.064Z,55.44
2018-07-20T21:00:26.227Z,55.50
2018-07-20T21:02:53.383Z,55.78
2018-07-20T21:05:20.545Z,56.48
2018-07-20T21:07:47.667Z,56.74
2018-07-20T21:10:14.880Z,55.25
2018-07-20T21:12:42.084Z,55.72
2018-07-20T21:15:09.200Z,57.11
2018-07-20T21:17:36.352Z,60.00
2018-07-20T21:20:04.764Z,63.22
2018-07-20T21:22:31.940Z,61.82
2018-07-20T21:24:59.049Z,61.33
2018-07-20T21:27:26.185Z,60.62
2018-07-20T21:29:53.328Z,60.42
2018-07-20T21:32:20.523Z,60.25
2018-07-20T21:34:47.704Z,59.66
2018-07-20T21:37:14.851Z,58.30
2018-07-20T21:39:42.083Z,58.99
2018-07-20T21:42:09.208Z,58.61
2018-07-20T21:44:36.347Z,61.64
2018-07-20T21:47:03.489Z,63.94
2018-07-20T21:49:30.604Z,63.72
2018-07-20T21:51:58.019Z,63.81
2018-07-20T21:54:25.198Z,64.93
2018-07-20T21:56:52.372Z,65.02
2018-07-20T21:59:19.569Z,65.61
2018-07-20T22:01:46.752Z,66.18
2018-07-20T22:04:13.856Z,64.73
2018-07-20T22:06:41.001Z,64.13
2018-07-20T22:09:09.592Z,62.77
2018-07-20T22:11:36.803Z,64.11
2018-07-20T22:14:04.053Z,63.67
2018-07-20T22:16:31.177Z,63.43
2018-07-20T22:18:58.285Z,62.81
2018-07-20T22:21:25.450Z,65.19
2018-07-20T22:23:52.525Z,63.72
2018-07-20T22:26:19.683Z,62.34
2018-07-20T22:28:46.825Z,63.90
2018-07-20T22:31:13.964Z,65.64
2018-07-20T22:33:41.093Z,65.84
2018-07-20T22:36:08.272Z,65.40
2018-07-20T22:38:35.464Z,65.38
2018-07-20T22:41:02.618Z,65.46
2018-07-20T22:43:29.736Z,64.60
2018-07-20T22:45:56.928Z,64.50
2018-07-20T22:48:24.054Z,65.74
2018-07-20T22:50:51.221Z,64.27
2018-07-20T22:53:18.349Z,64.07
2018-07-20T22:55:45.493Z,63.66
2018-07-20T22:58:12.616Z,63.23
2018-07-20T23:00:39.779Z,65.00
2018-07-20T23:03:06.930Z,65.65
2018-07-20T23:05:34.117Z,65.29
2018-07-20T23:08:01.270Z,64.72
2018-07-20T23:10:28.464Z,64.19
2018-07-20T23:12:55.561Z,64.63
2018-07-20T23:15:22.700Z,65.83
2018-07-20T23:17:49.844Z,68.57
2018-07-20T23:20:16.990Z,68.22
2018-07-20T23:22:44.152Z,67.29
2018-07-20T23:27:37.914Z,65.39
2018-07-20T23:30:05.472Z,65.55
2018-07-20T23:32:32.671Z,66.33
2018-07-20T23:34:59.821Z,64.29
2018-07-20T23:37:27.000Z,64.21
2018-07-20T23:39:54.112Z,65.16
2018-07-20T23:42:21.264Z,65.97
2018-07-20T23:44:48.377Z,64.67
2018-07-20T23:47:15.512Z,64.06
2018-07-20T23:49:42.673Z,65.06
2018-07-20T23:52:09.835Z,63.71
2018-07-20T23:54:36.985Z,63.83
2018-07-20T23:57:04.136Z,64.92
2018-07-20T23:59:31.288Z,66.06
